createdAt,value
2023-05-10T00:00:29.204Z,4.57
2023-05-10T00:03:52.306Z,4.55
2023-05-10T00:07:14.046Z,4.50
2023-05-10T00:10:35.908Z,5.38
2023-05-10T00:13:57.313Z,5.05
2023-05-10T00:17:18.994Z,4.95
2023-05-10T00:20:41.709Z,4.35
2023-05-10T00:24:03.349Z,5.13
2023-05-10T00:27:24.450Z,4.78
2023-05-10T00:30:45.989Z,4.72
2023-05-10T00:34:07.751Z,5.20
2023-05-10T00:37:30.820Z,5.00
2023-05-10T00:40:52.435Z,5.20
2023-05-10T00:44:20.677Z,5.55
2023-05-10T00:47:42.706Z,5.40
2023-05-10T00:51:05.028Z,5.63
2023-05-10T00:54:28.059Z,5.00
2023-05-10T00:57:49.522Z,5.82
2023-05-10T01:01:11.743Z,6.10
2023-05-10T01:04:33.647Z,6.07
2023-05-10T01:07:55.401Z,5.53
2023-05-10T01:11:18.206Z,5.03
2023-05-10T01:14:39.989Z,4.75
2023-05-10T01:18:02.636Z,5.53
2023-05-10T01:21:35.146Z,6.00
2023-05-10T01:25:30.709Z,5.65
2023-05-10T01:29:17.303Z,5.90
2023-05-10T01:32:45.764Z,5.10
2023-05-10T01:36:11.003Z,5.82
2023-05-10T01:39:44.071Z,5.55
2023-05-10T01:43:10.108Z,4.97
2023-05-10T01:46:37.459Z,5.38
2023-05-10T01:50:04.227Z,5.43
2023-05-10T01:53:27.756Z,5.55
2023-05-10T01:56:54.619Z,5.68
2023-05-10T02:00:17.537Z,5.78
2023-05-10T02:03:40.727Z,5.35
2023-05-10T02:07:04.322Z,5.22
2023-05-10T02:10:25.793Z,5.72
2023-05-10T02:13:50.359Z,5.57
2023-05-10T02:17:13.396Z,5.45
2023-05-10T02:20:36.928Z,5.72
2023-05-10T02:24:01.477Z,5.85
2023-05-10T02:27:26.172Z,5.30
2023-05-10T02:30:49.943Z,5.72
2023-05-10T02:34:13.749Z,5.95
2023-05-10T02:37:36.273Z,5.68
2023-05-10T02:41:01.634Z,6.20
2023-05-10T02:44:25.902Z,5.85
2023-05-10T02:47:47.184Z,5.18
2023-05-10T02:51:10.210Z,6.22
2023-05-10T02:54:35.355Z,5.82
2023-05-10T02:58:01.290Z,5.38
2023-05-10T03:01:23.691Z,5.35
2023-05-10T03:04:45.522Z,5.78
2023-05-10T03:08:07.726Z,5.57
2023-05-10T03:11:40.166Z,6.00
2023-05-10T03:15:15.783Z,5.75
2023-05-10T03:18:46.180Z,6.07
2023-05-10T03:22:12.700Z,5.53
2023-05-10T03:25:35.417Z,5.35
2023-05-10T03:29:00.838Z,6.07
2023-05-10T03:32:24.469Z,5.43
2023-05-10T03:35:46.711Z,5.45
2023-05-10T03:39:09.938Z,5.70
2023-05-10T03:42:32.079Z,5.70
2023-05-10T03:45:54.108Z,5.78
2023-05-10T03:49:16.864Z,5.97
2023-05-10T03:52:39.981Z,6.35
2023-05-10T03:56:01.329Z,5.45
2023-05-10T03:59:22.976Z,5.55
2023-05-10T04:02:46.580Z,6.00
2023-05-10T04:06:14.423Z,5.47
2023-05-10T04:09:36.150Z,5.28
2023-05-10T04:12:57.593Z,5.38
2023-05-10T04:16:19.169Z,5.50
2023-05-10T04:19:40.827Z,5.75
2023-05-10T04:23:04.314Z,5.45
2023-05-10T04:26:25.987Z,5.60
2023-05-10T04:29:47.917Z,5.40
2023-05-10T04:33:09.514Z,6.10
2023-05-10T04:36:31.326Z,5.35
2023-05-10T04:39:54.836Z,5.70
2023-05-10T04:43:16.300Z,5.35
2023-05-10T04:46:38.387Z,5.57
2023-05-10T04:50:00.161Z,5.63
2023-05-10T04:53:22.066Z,5.40
2023-05-10T04:56:45.060Z,5.95
2023-05-10T05:00:07.753Z,6.05
2023-05-10T05:03:29.121Z,6.20
2023-05-10T05:06:52.970Z,5.93
2023-05-10T05:10:15.671Z,5.35
2023-05-10T05:13:38.862Z,6.43
2023-05-10T05:17:00.761Z,5.93
2023-05-10T05:20:22.309Z,5.93
2023-05-10T05:23:43.760Z,5.97
2023-05-10T05:27:04.978Z,5.82
2023-05-10T05:30:28.533Z,6.13
2023-05-10T05:33:50.262Z,6.30
2023-05-10T05:37:15.293Z,5.75
2023-05-10T05:40:36.595Z,5.60
2023-05-10T05:43:57.860Z,5.28
2023-05-10T05:47:21.175Z,4.97
2023-05-10T05:50:42.975Z,4.93
2023-05-10T05:54:05.386Z,4.85
2023-05-10T05:57:27.628Z,4.53
2023-05-10T06:00:49.913Z,4.55
2023-05-10T06:04:13.930Z,4.65
2023-05-10T06:07:35.433Z,4.72
2023-05-10T06:10:56.615Z,4.15
2023-05-10T06:14:18.032Z,4.60
2023-05-10T06:17:39.887Z,4.68
2023-05-10T06:21:02.600Z,4.32
2023-05-10T06:24:24.288Z,3.97
2023-05-10T06:27:49.823Z,4.80
2023-05-10T06:31:13.794Z,4.10
2023-05-10T06:34:35.459Z,5.10
2023-05-10T06:37:58.147Z,4.20
2023-05-10T06:41:19.430Z,4.97
2023-05-10T06:44:40.676Z,4.53
2023-05-10T06:48:02.517Z,4.53
2023-05-10T06:51:24.602Z,3.92
2023-05-10T06:54:47.391Z,4.28
2023-05-10T06:58:08.698Z,4.28
2023-05-10T07:01:30.002Z,3.58
2023-05-10T07:04:52.936Z,4.15
2023-05-10T07:08:15.454Z,4.78
2023-05-10T07:11:38.891Z,3.92
2023-05-10T07:15:00.149Z,3.78
2023-05-10T07:18:21.891Z,3.55
2023-05-10T07:21:44.345Z,4.20
2023-05-10T07:25:06.839Z,3.70
2023-05-10T07:28:29.665Z,3.40
2023-05-10T07:31:51.295Z,3.85
2023-05-10T07:35:13.018Z,4.32
2023-05-10T07:38:34.294Z,4.25
2023-05-10T07:41:56.120Z,3.60
2023-05-10T07:45:19.749Z,3.35
2023-05-10T07:48:41.302Z,3.42
2023-05-10T07:52:02.744Z,3.40
2023-05-10T07:55:23.879Z,3.30
2023-05-10T07:58:45.783Z,3.35
2023-05-10T08:02:08.761Z,3.65
2023-05-10T08:05:30.471Z,3.58
2023-05-10T08:08:52.445Z,3.42
2023-05-10T08:12:13.916Z,3.30
2023-05-10T08:15:35.677Z,4.15
2023-05-10T08:18:58.997Z,3.17
2023-05-10T08:22:20.445Z,3.25
2023-05-10T08:25:41.786Z,3.33
2023-05-10T08:29:03.568Z,2.92
2023-05-10T08:32:24.946Z,2.88
2023-05-10T08:35:48.469Z,3.15
2023-05-10T08:39:19.504Z,2.92
2023-05-10T08:42:55.034Z,3.30
2023-05-10T08:46:19.313Z,2.70
2023-05-10T08:49:42.048Z,2.85
2023-05-10T08:53:07.176Z,2.75
2023-05-10T08:56:28.872Z,3.10
2023-05-10T08:59:50.557Z,2.60
2023-05-10T09:03:12.333Z,2.50
2023-05-10T09:06:35.084Z,2.70
2023-05-10T09:09:59.432Z,2.88
2023-05-10T09:13:23.033Z,2.67
2023-05-10T09:16:44.786Z,2.78
2023-05-10T09:20:07.920Z,3.03
2023-05-10T09:23:33.231Z,2.60
2023-05-10T09:26:58.606Z,3.08
2023-05-10T09:30:27.318Z,3.47
2023-05-10T09:33:50.647Z,2.83
2023-05-10T09:37:12.211Z,3.28
2023-05-10T09:40:33.949Z,2.90
2023-05-10T09:43:58.891Z,2.65
2023-05-10T09:47:20.602Z,2.88
2023-05-10T09:50:42.707Z,2.72
2023-05-10T09:54:14.690Z,3.30
2023-05-10T09:57:36.473Z,3.13
2023-05-10T10:00:59.981Z,3.17
2023-05-10T10:04:22.431Z,2.80
2023-05-10T10:07:44.226Z,2.67
2023-05-10T10:11:06.413Z,2.67
2023-05-10T10:14:28.627Z,2.80
2023-05-10T10:17:52.535Z,2.70
2023-05-10T10:21:15.686Z,2.80
2023-05-10T10:24:37.998Z,3.13
2023-05-10T10:28:13.150Z,3.05
2023-05-10T10:31:40.035Z,2.88
2023-05-10T10:35:03.799Z,2.72
2023-05-10T10:38:25.772Z,2.47
2023-05-10T10:41:52.472Z,2.67
2023-05-10T10:45:15.531Z,2.72
2023-05-10T10:48:37.847Z,2.42
2023-05-10T10:52:24.534Z,2.65
2023-05-10T10:55:49.804Z,2.42
2023-05-10T10:59:11.291Z,2.72
2023-05-10T11:02:45.222Z,2.90
2023-05-10T11:06:07.207Z,3.30
2023-05-10T11:09:29.992Z,2.67
2023-05-10T11:12:56.607Z,2.40
2023-05-10T11:16:19.948Z,2.58
2023-05-10T11:20:08.314Z,2.60
2023-05-10T11:23:33.794Z,2.90
2023-05-10T11:26:56.665Z,3.30
2023-05-10T11:30:19.646Z,2.67
2023-05-10T11:33:45.790Z,2.58
2023-05-10T11:37:06.993Z,2.80
2023-05-10T11:40:28.990Z,3.53
2023-05-10T11:43:54.147Z,2.75
2023-05-10T11:47:16.575Z,2.75
2023-05-10T11:50:38.501Z,3.20
2023-05-10T11:54:00.890Z,3.13
2023-05-10T11:57:27.464Z,2.70
2023-05-10T12:00:50.481Z,2.75
2023-05-10T12:04:13.683Z,3.10
2023-05-10T12:07:36.157Z,2.67
2023-05-10T12:11:07.229Z,2.70
2023-05-10T12:14:29.153Z,3.25
2023-05-10T12:17:53.298Z,2.47
2023-05-10T12:21:14.926Z,3.47
2023-05-10T12:24:37.032Z,2.80
2023-05-10T12:28:01.758Z,2.88
2023-05-10T12:31:23.515Z,2.83
2023-05-10T12:34:48.815Z,2.38
2023-05-10T12:38:27.337Z,2.80
2023-05-10T12:41:48.547Z,3.17
2023-05-10T12:45:11.039Z,2.72
2023-05-10T12:48:32.697Z,2.72
2023-05-10T12:51:55.607Z,3.28
2023-05-10T12:55:17.346Z,2.60
2023-05-10T12:58:38.884Z,2.85
2023-05-10T13:02:00.603Z,2.85
2023-05-10T13:05:22.140Z,3.20
2023-05-10T13:08:45.483Z,2.75
2023-05-10T13:12:08.814Z,3.05
2023-05-10T13:15:31.821Z,3.13
2023-05-10T13:18:53.226Z,3.10
2023-05-10T13:22:18.719Z,3.05
2023-05-10T13:25:46.715Z,2.95
2023-05-10T13:29:08.473Z,2.83
2023-05-10T13:32:30.003Z,3.00
2023-05-10T13:35:54.345Z,2.88
2023-05-10T13:39:17.355Z,2.88
2023-05-10T13:42:40.772Z,2.60
2023-05-10T13:46:02.513Z,2.95
2023-05-10T13:49:24.180Z,3.33
2023-05-10T13:52:45.509Z,3.13
2023-05-10T13:56:07.828Z,3.30
2023-05-10T13:59:32.637Z,2.85
2023-05-10T14:02:54.529Z,2.90
2023-05-10T14:06:16.534Z,2.75
2023-05-10T14:09:38.358Z,3.17
2023-05-10T14:13:00.112Z,2.50
2023-05-10T14:16:23.298Z,3.05
2023-05-10T14:19:45.355Z,3.13
2023-05-10T14:23:06.797Z,2.83
2023-05-10T14:26:28.376Z,3.08
2023-05-10T14:29:49.863Z,2.70
2023-05-10T14:33:13.273Z,3.10
2023-05-10T14:36:34.767Z,3.00
2023-05-10T14:39:56.462Z,3.03
2023-05-10T14:43:17.582Z,2.70
2023-05-10T14:46:39.405Z,2.85
2023-05-10T14:50:02.375Z,3.03
2023-05-10T14:53:24.096Z,2.53
2023-05-10T14:56:46.102Z,2.92
2023-05-10T15:00:08.838Z,2.60
2023-05-10T15:03:30.899Z,3.30
2023-05-10T15:07:00.149Z,2.65
2023-05-10T15:10:21.746Z,2.85
2023-05-10T15:13:43.162Z,2.65
2023-05-10T15:17:05.160Z,2.60
2023-05-10T15:20:26.794Z,2.47
2023-05-10T15:23:50.319Z,2.95
2023-05-10T15:27:11.825Z,3.30
2023-05-10T15:30:33.223Z,2.90
2023-05-10T15:33:59.744Z,2.67
2023-05-10T15:37:21.202Z,2.72
2023-05-10T15:40:44.269Z,2.88
2023-05-10T15:44:06.381Z,2.30
2023-05-10T15:47:29.046Z,3.30
2023-05-10T15:50:50.184Z,2.45
2023-05-10T15:54:11.924Z,3.15
2023-05-10T15:57:36.734Z,2.85
2023-05-10T16:00:58.920Z,2.90
2023-05-10T16:04:20.957Z,2.67
2023-05-10T16:07:42.783Z,2.67
2023-05-10T16:11:04.660Z,3.00
2023-05-10T16:14:27.636Z,2.70
2023-05-10T16:17:49.631Z,2.70
2023-05-10T16:21:11.581Z,2.70
2023-05-10T16:24:33.648Z,2.60
2023-05-10T16:27:55.155Z,3.08
2023-05-10T16:31:20.065Z,2.47
2023-05-10T16:34:41.722Z,2.85
2023-05-10T16:38:03.980Z,2.80
2023-05-10T16:41:26.419Z,2.55
2023-05-10T16:44:48.248Z,3.20
2023-05-10T16:48:12.052Z,3.00
2023-05-10T16:51:33.738Z,2.67
2023-05-10T16:54:55.707Z,2.90
2023-05-10T16:58:17.664Z,2.85
2023-05-10T17:01:39.272Z,2.60
2023-05-10T17:05:01.840Z,2.72
2023-05-10T17:08:23.378Z,3.00
2023-05-10T17:11:44.621Z,3.38
2023-05-10T17:15:07.363Z,3.85
2023-05-10T17:18:29.153Z,4.22
2023-05-10T17:21:51.975Z,3.10
2023-05-10T17:25:13.250Z,3.28
2023-05-10T17:28:36.206Z,2.80
2023-05-10T17:31:57.877Z,3.00
2023-05-10T17:35:19.711Z,3.15
2023-05-10T17:38:43.339Z,2.78
2023-05-10T17:42:05.377Z,2.53
2023-05-10T17:45:27.163Z,3.15
2023-05-10T17:48:48.801Z,2.95
2023-05-10T17:52:10.129Z,2.80
2023-05-10T17:55:33.423Z,2.80
2023-05-10T17:58:54.827Z,2.90
2023-05-10T18:02:16.075Z,2.90
2023-05-10T18:05:39.704Z,2.70
2023-05-10T18:09:01.369Z,2.92
2023-05-10T18:12:24.223Z,3.20
2023-05-10T18:15:46.133Z,3.13
2023-05-10T18:19:07.780Z,3.00
2023-05-10T18:22:29.417Z,2.90
2023-05-10T18:25:50.932Z,3.08
2023-05-10T18:29:13.987Z,3.00
2023-05-10T18:32:35.417Z,2.78
2023-05-10T18:35:56.844Z,3.10
2023-05-10T18:39:18.998Z,3.13
2023-05-10T18:42:41.666Z,3.17
2023-05-10T18:46:04.818Z,2.80
2023-05-10T18:49:27.714Z,3.10
2023-05-10T18:52:49.286Z,2.70
2023-05-10T18:56:10.856Z,2.80
2023-05-10T18:59:32.348Z,3.25
2023-05-10T19:02:55.137Z,3.88
2023-05-10T19:06:17.311Z,3.60
2023-05-10T19:09:38.996Z,3.95
2023-05-10T19:13:00.384Z,3.55
2023-05-10T19:16:24.043Z,3.00
2023-05-10T19:19:48.383Z,3.65
2023-05-10T19:23:10.524Z,4.53
2023-05-10T19:26:32.224Z,5.72
2023-05-10T19:29:55.470Z,4.30
2023-05-10T19:33:18.110Z,4.80
2023-05-10T19:36:41.342Z,3.60
2023-05-10T19:40:02.839Z,3.55
2023-05-10T19:43:24.247Z,3.58
2023-05-10T19:46:45.519Z,3.42
2023-05-10T19:50:08.213Z,3.22
2023-05-10T19:53:32.242Z,3.28
2023-05-10T19:56:53.887Z,4.50
2023-05-10T20:00:16.156Z,3.65
2023-05-10T20:03:38.331Z,3.13
2023-05-10T20:07:01.305Z,3.88
2023-05-10T20:10:26.902Z,3.45
2023-05-10T20:13:48.863Z,3.40
2023-05-10T20:17:10.193Z,3.45
2023-05-10T20:20:32.020Z,3.63
2023-05-10T20:23:53.659Z,5.22
2023-05-10T20:27:16.531Z,4.47
2023-05-10T20:30:37.969Z,3.67
2023-05-10T20:33:59.982Z,6.05
2023-05-10T20:37:21.211Z,4.72
2023-05-10T20:40:43.006Z,6.25
2023-05-10T20:44:06.919Z,5.85
2023-05-10T20:47:28.657Z,6.70
2023-05-10T20:50:51.114Z,5.50
2023-05-10T20:54:12.841Z,5.20
2023-05-10T20:57:34.468Z,4.63
2023-05-10T21:00:57.112Z,4.43
2023-05-10T21:04:18.814Z,3.90
2023-05-10T21:07:41.052Z,4.05
2023-05-10T21:11:05.712Z,5.65
2023-05-10T21:14:27.053Z,4.60
2023-05-10T21:17:49.800Z,4.25
2023-05-10T21:21:11.532Z,4.30
2023-05-10T21:24:33.341Z,4.05
2023-05-10T21:27:54.767Z,4.22
2023-05-10T21:31:16.867Z,4.68
2023-05-10T21:34:39.810Z,4.93
2023-05-10T21:38:01.639Z,4.90
2023-05-10T21:41:23.491Z,4.45
2023-05-10T21:44:44.932Z,3.80
2023-05-10T21:48:06.676Z,4.13
2023-05-10T21:51:30.059Z,3.83
2023-05-10T21:54:52.435Z,5.00
2023-05-10T21:58:13.524Z,5.13
2023-05-10T22:01:35.357Z,4.60
2023-05-10T22:04:57.078Z,4.80
2023-05-10T22:08:19.808Z,4.82
2023-05-10T22:11:41.122Z,5.15
2023-05-10T22:18:27.397Z,5.43
2023-05-10T22:21:49.129Z,5.07
2023-05-10T22:25:12.353Z,4.63
2023-05-10T22:28:33.680Z,5.10
2023-05-10T22:31:54.891Z,5.10
2023-05-10T22:35:16.224Z,4.72
2023-05-10T22:38:37.498Z,4.13
2023-05-10T22:42:00.049Z,4.00
2023-05-10T22:45:21.886Z,4.53
2023-05-10T22:48:44.292Z,4.32
2023-05-10T22:52:05.582Z,4.45
2023-05-10T22:55:27.426Z,4.30
2023-05-10T22:58:50.261Z,4.30
2023-05-10T23:02:14.091Z,4.80
2023-05-10T23:05:35.580Z,4.15
2023-05-10T23:08:56.814Z,5.45
2023-05-10T23:12:18.134Z,4.85
2023-05-10T23:15:41.302Z,4.40
2023-05-10T23:19:02.949Z,5.15
2023-05-10T23:22:24.223Z,4.40
2023-05-10T23:25:45.968Z,4.20
2023-05-10T23:29:07.300Z,4.50
2023-05-10T23:32:30.412Z,4.32
2023-05-10T23:35:51.806Z,4.35
2023-05-10T23:39:13.470Z,4.22
2023-05-10T23:42:34.798Z,4.50
2023-05-10T23:45:56.851Z,4.38
2023-05-10T23:49:20.045Z,4.30
2023-05-10T23:52:41.310Z,4.50
2023-05-10T23:56:03.428Z,4.40
2023-05-10T23:59:24.798Z,4.30
